createdAt,value
2019-03-23T00:01:56.379Z,5.33
2019-03-23T00:04:25.402Z,4.33
2019-03-23T00:06:53.239Z,5.23
2019-03-23T00:09:20.804Z,5.90
2019-03-23T00:11:48.477Z,5.60
2019-03-23T00:14:18.364Z,5.00
2019-03-23T00:16:45.927Z,6.20
2019-03-23T00:19:13.231Z,5.97
2019-03-23T00:21:40.485Z,5.03
2019-03-23T00:24:07.787Z,4.67
2019-03-23T00:26:35.059Z,5.10
2019-03-23T00:29:02.509Z,5.10
2019-03-23T00:31:29.955Z,4.90
2019-03-23T00:33:57.238Z,5.03
2019-03-23T00:36:24.479Z,5.13
2019-03-23T00:38:51.933Z,4.80
2019-03-23T00:41:19.191Z,4.93
2019-03-23T00:43:46.899Z,5.30
2019-03-23T00:46:14.309Z,5.40
2019-03-23T00:48:42.002Z,5.90
2019-03-23T00:51:09.294Z,5.33
2019-03-23T00:53:36.558Z,5.37
2019-03-23T00:56:03.875Z,4.90
2019-03-23T00:58:31.131Z,5.03
2019-03-23T01:00:58.516Z,5.17
2019-03-23T01:03:27.855Z,5.97
2019-03-23T01:05:55.123Z,4.80
2019-03-23T01:08:22.673Z,5.00
2019-03-23T01:10:50.052Z,4.90
2019-03-23T01:13:17.570Z,5.40
2019-03-23T01:15:48.224Z,5.03
2019-03-23T01:18:16.440Z,4.80
2019-03-23T01:20:49.579Z,5.07
2019-03-23T01:23:15.431Z,4.53
2019-03-23T01:25:42.728Z,5.00
2019-03-23T01:28:10.113Z,4.50
2019-03-23T01:30:37.655Z,5.13
2019-03-23T01:33:05.063Z,4.80
2019-03-23T01:35:32.570Z,5.27
2019-03-23T01:37:59.990Z,5.10
2019-03-23T01:40:27.588Z,5.20
2019-03-23T01:42:54.995Z,5.07
2019-03-23T01:45:22.401Z,4.97
2019-03-23T01:47:49.740Z,5.17
2019-03-23T01:50:17.393Z,4.97
2019-03-23T01:52:44.706Z,4.90
2019-03-23T01:55:13.973Z,5.00
2019-03-23T01:57:42.417Z,5.60
2019-03-23T02:00:09.783Z,5.50
2019-03-23T02:02:37.049Z,5.60
2019-03-23T02:05:05.368Z,5.30
2019-03-23T02:07:32.771Z,5.97
2019-03-23T02:10:00.037Z,5.20
2019-03-23T02:12:27.317Z,5.53
2019-03-23T02:14:54.572Z,5.63
2019-03-23T02:17:22.182Z,5.33
2019-03-23T02:19:50.074Z,5.50
2019-03-23T02:22:17.457Z,5.07
2019-03-23T02:24:47.093Z,5.40
2019-03-23T02:27:14.376Z,5.67
2019-03-23T02:29:42.054Z,5.33
2019-03-23T02:32:09.737Z,5.40
2019-03-23T02:34:36.983Z,5.53
2019-03-23T02:37:04.285Z,5.10
2019-03-23T02:39:31.815Z,5.30
2019-03-23T02:41:59.219Z,5.40
2019-03-23T02:44:26.718Z,5.50
2019-03-23T02:46:53.978Z,5.57
2019-03-23T02:49:21.325Z,6.20
2019-03-23T02:51:48.636Z,5.50
2019-03-23T02:54:17.450Z,6.00
2019-03-23T02:56:44.825Z,5.67
2019-03-23T02:59:12.307Z,6.13
2019-03-23T03:01:39.553Z,6.47
2019-03-23T03:04:06.928Z,5.80
2019-03-23T03:06:34.381Z,5.17
2019-03-23T03:09:01.702Z,5.20
2019-03-23T03:11:29.148Z,5.43
2019-03-23T03:13:56.427Z,5.27
2019-03-23T03:16:27.491Z,5.70
2019-03-23T03:18:54.993Z,5.57
2019-03-23T03:21:23.581Z,5.87
2019-03-23T03:23:50.972Z,5.27
2019-03-23T03:26:18.593Z,5.53
2019-03-23T03:28:45.918Z,5.30
2019-03-23T03:31:13.197Z,5.93
2019-03-23T03:33:40.519Z,5.70
2019-03-23T03:36:07.771Z,5.30
2019-03-23T03:38:35.668Z,5.37
2019-03-23T03:41:02.947Z,5.33
2019-03-23T03:43:30.239Z,5.67
2019-03-23T03:46:00.013Z,6.03
2019-03-23T03:48:27.243Z,5.33
2019-03-23T03:50:54.537Z,5.63
2019-03-23T03:53:24.745Z,5.33
2019-03-23T03:55:52.096Z,5.10
2019-03-23T03:58:22.306Z,5.37
2019-03-23T04:00:49.715Z,5.40
2019-03-23T04:03:17.090Z,5.50
2019-03-23T04:05:46.626Z,5.43
2019-03-23T04:08:15.622Z,6.27
2019-03-23T04:10:42.914Z,4.97
2019-03-23T04:13:10.158Z,5.53
2019-03-23T04:15:37.688Z,5.30
2019-03-23T04:18:04.965Z,5.07
2019-03-23T04:20:32.246Z,5.90
2019-03-23T04:22:59.634Z,5.07
2019-03-23T04:25:29.885Z,5.37
2019-03-23T04:27:57.159Z,5.60
2019-03-23T04:30:24.552Z,5.23
2019-03-23T04:32:51.810Z,5.50
2019-03-23T04:35:19.083Z,5.43
2019-03-23T04:37:46.469Z,5.50
2019-03-23T04:40:14.197Z,5.13
2019-03-23T04:42:41.521Z,5.50
2019-03-23T04:45:08.890Z,5.60
2019-03-23T04:47:37.163Z,5.77
2019-03-23T04:50:04.909Z,5.70
2019-03-23T04:52:32.261Z,6.13
2019-03-23T04:54:59.670Z,5.20
2019-03-23T04:57:26.962Z,6.20
2019-03-23T04:59:54.263Z,5.63
2019-03-23T05:02:21.655Z,5.70
2019-03-23T05:04:48.943Z,5.83
2019-03-23T05:07:16.598Z,5.60
2019-03-23T05:09:43.888Z,6.30
2019-03-23T05:12:11.494Z,5.57
2019-03-23T05:14:38.784Z,5.43
2019-03-23T05:17:06.040Z,6.00
2019-03-23T05:19:33.672Z,5.40
2019-03-23T05:22:08.140Z,5.27
2019-03-23T05:24:35.550Z,5.10
2019-03-23T05:27:02.928Z,6.07
2019-03-23T05:29:30.236Z,6.40
2019-03-23T05:31:57.612Z,5.97
2019-03-23T05:34:24.905Z,6.07
2019-03-23T05:36:52.180Z,6.23
2019-03-23T05:39:19.542Z,6.00
2019-03-23T05:41:46.849Z,6.37
2019-03-23T05:44:14.172Z,6.33
2019-03-23T05:46:42.776Z,5.87
2019-03-23T05:49:10.170Z,5.57
2019-03-23T05:51:37.603Z,6.00
2019-03-23T05:54:04.904Z,6.27
2019-03-23T05:56:32.203Z,5.87
2019-03-23T05:58:59.696Z,6.27
2019-03-23T06:01:27.152Z,5.40
2019-03-23T06:03:54.450Z,5.90
2019-03-23T06:06:22.132Z,5.63
2019-03-23T06:08:54.908Z,5.70
2019-03-23T06:11:18.988Z,5.97
2019-03-23T06:13:47.443Z,6.20
2019-03-23T06:16:14.842Z,6.50
2019-03-23T06:18:42.136Z,6.07
2019-03-23T06:21:09.430Z,6.60
2019-03-23T06:23:36.776Z,6.40
2019-03-23T06:26:06.418Z,6.50
2019-03-23T06:28:34.460Z,6.33
2019-03-23T06:31:01.736Z,6.40
2019-03-23T06:33:29.002Z,6.40
2019-03-23T06:35:56.323Z,6.73
2019-03-23T06:38:23.640Z,6.20
2019-03-23T06:40:50.948Z,6.70
2019-03-23T06:43:18.250Z,6.70
2019-03-23T06:45:45.717Z,7.37
2019-03-23T06:48:13.014Z,8.60
2019-03-23T06:50:40.770Z,8.60
2019-03-23T06:53:08.070Z,6.90
2019-03-23T06:55:35.436Z,6.70
2019-03-23T06:58:02.842Z,7.63
2019-03-23T07:00:30.354Z,7.50
2019-03-23T07:02:57.650Z,7.37
2019-03-23T07:05:24.952Z,6.80
2019-03-23T07:07:52.224Z,7.47
2019-03-23T07:10:19.645Z,7.67
2019-03-23T07:12:46.914Z,7.37
2019-03-23T07:15:20.010Z,7.70
2019-03-23T07:17:44.167Z,7.23
2019-03-23T07:20:11.577Z,7.57
2019-03-23T07:22:38.991Z,7.60
2019-03-23T07:25:08.454Z,7.80
2019-03-23T07:27:36.574Z,8.20
2019-03-23T07:30:05.799Z,7.43
2019-03-23T07:32:33.050Z,8.33
2019-03-23T07:35:00.437Z,7.20
2019-03-23T07:37:27.716Z,8.00
2019-03-23T07:39:55.091Z,8.30
2019-03-23T07:42:22.387Z,8.00
2019-03-23T07:44:49.635Z,8.13
2019-03-23T07:47:17.000Z,8.90
2019-03-23T07:49:44.632Z,9.13
2019-03-23T07:52:11.909Z,9.27
2019-03-23T07:54:39.215Z,9.43
2019-03-23T07:57:06.509Z,9.33
2019-03-23T07:59:33.814Z,9.70
2019-03-23T08:02:02.032Z,11.17
2019-03-23T08:04:29.315Z,10.47
2019-03-23T08:06:56.673Z,10.10
2019-03-23T08:09:23.993Z,10.77
2019-03-23T08:11:51.389Z,11.03
2019-03-23T08:14:19.892Z,11.20
2019-03-23T08:16:47.415Z,11.00
2019-03-23T08:19:14.854Z,13.70
2019-03-23T08:21:42.125Z,13.00
2019-03-23T08:24:09.461Z,13.10
2019-03-23T08:26:36.827Z,14.60
2019-03-23T08:29:04.244Z,12.80
2019-03-23T08:31:31.638Z,13.60
2019-03-23T08:34:00.389Z,13.47
2019-03-23T08:36:27.775Z,13.00
2019-03-23T08:38:56.138Z,14.13
2019-03-23T08:41:23.779Z,13.73
2019-03-23T08:43:52.713Z,14.47
2019-03-23T08:46:22.590Z,14.97
2019-03-23T08:48:50.293Z,15.93
2019-03-23T08:51:18.528Z,16.60
2019-03-23T08:53:45.989Z,15.60
2019-03-23T08:56:13.687Z,16.33
2019-03-23T08:58:39.681Z,16.97
2019-03-23T09:01:06.942Z,17.70
2019-03-23T09:03:34.217Z,17.60
2019-03-23T09:06:01.655Z,18.57
2019-03-23T09:08:29.497Z,18.10
2019-03-23T09:10:56.768Z,19.27
2019-03-23T09:13:24.168Z,17.50
2019-03-23T09:15:51.693Z,18.43
2019-03-23T09:18:23.143Z,18.80
2019-03-23T09:20:52.917Z,18.40
2019-03-23T09:23:22.755Z,19.30
2019-03-23T09:25:50.113Z,18.63
2019-03-23T09:28:18.627Z,20.17
2019-03-23T09:30:47.999Z,20.97
2019-03-23T09:33:15.442Z,20.40
2019-03-23T09:35:42.957Z,20.30
2019-03-23T09:38:10.784Z,20.43
2019-03-23T09:40:40.341Z,18.63
2019-03-23T09:43:07.643Z,20.20
2019-03-23T09:45:34.933Z,20.83
2019-03-23T09:48:02.278Z,20.30
2019-03-23T09:50:29.607Z,19.90
2019-03-23T09:53:01.073Z,20.97
2019-03-23T09:55:28.796Z,21.37
2019-03-23T09:57:56.305Z,22.33
2019-03-23T10:00:23.766Z,20.57
2019-03-23T10:02:51.289Z,22.47
2019-03-23T10:05:18.547Z,22.23
2019-03-23T10:07:45.836Z,21.07
2019-03-23T10:10:21.340Z,22.10
2019-03-23T10:12:44.607Z,21.13
2019-03-23T10:15:12.119Z,21.90
2019-03-23T10:17:39.805Z,21.17
2019-03-23T10:20:07.448Z,21.80
2019-03-23T10:22:35.045Z,21.70
2019-03-23T10:25:04.719Z,23.23
2019-03-23T10:27:32.507Z,22.77
2019-03-23T10:29:59.901Z,23.47
2019-03-23T10:32:27.646Z,23.93
2019-03-23T10:34:57.121Z,24.80
2019-03-23T10:37:26.114Z,23.20
2019-03-23T10:39:53.676Z,24.17
2019-03-23T10:42:21.029Z,23.40
2019-03-23T10:44:48.593Z,23.60
2019-03-23T10:47:21.056Z,21.63
2019-03-23T10:49:50.999Z,23.57
2019-03-23T10:52:18.976Z,23.60
2019-03-23T10:54:57.376Z,23.60
2019-03-23T10:57:25.228Z,23.83
2019-03-23T10:59:52.588Z,23.70
2019-03-23T11:02:19.896Z,23.40
2019-03-23T11:04:47.297Z,23.73
2019-03-23T11:07:15.500Z,26.10
2019-03-23T11:09:43.289Z,26.23
2019-03-23T11:12:17.109Z,25.70
2019-03-23T11:14:47.912Z,26.73
2019-03-23T11:17:16.245Z,25.90
2019-03-23T11:19:46.661Z,25.40
2019-03-23T11:22:25.125Z,23.70
2019-03-23T11:24:55.373Z,21.63
2019-03-23T11:27:23.013Z,24.57
2019-03-23T11:29:52.985Z,25.53
2019-03-23T11:32:27.653Z,23.93
2019-03-23T11:35:00.903Z,23.50
2019-03-23T11:37:31.341Z,23.67
2019-03-23T11:40:03.575Z,23.27
2019-03-23T11:42:31.501Z,22.67
2019-03-23T11:44:59.467Z,23.97
2019-03-23T11:47:31.283Z,25.53
2019-03-23T11:50:07.305Z,24.10
2019-03-23T11:52:39.841Z,24.77
2019-03-23T11:55:12.412Z,25.80
2019-03-23T11:57:44.469Z,24.00
2019-03-23T12:00:17.072Z,25.03
2019-03-23T12:02:44.691Z,25.83
2019-03-23T12:05:12.076Z,25.17
2019-03-23T12:07:42.613Z,24.33
2019-03-23T12:10:20.477Z,22.53
2019-03-23T12:12:54.899Z,22.10
2019-03-23T12:15:24.899Z,22.00
2019-03-23T12:17:52.594Z,23.53
2019-03-23T12:20:22.863Z,26.17
2019-03-23T12:22:57.933Z,24.30
2019-03-23T12:25:28.972Z,25.47
2019-03-23T12:28:09.100Z,24.40
2019-03-23T12:30:39.066Z,22.80
2019-03-23T12:33:10.209Z,24.60
2019-03-23T12:35:38.878Z,21.50
2019-03-23T12:38:06.241Z,23.20
2019-03-23T12:40:33.635Z,22.67
2019-03-23T12:43:04.273Z,26.20
2019-03-23T12:45:32.861Z,24.60
2019-03-23T12:48:06.593Z,23.43
2019-03-23T12:50:36.486Z,25.20
2019-03-23T12:53:06.949Z,24.10
2019-03-23T12:55:43.063Z,22.83
2019-03-23T12:58:22.854Z,22.30
2019-03-23T13:01:01.893Z,24.70
2019-03-23T13:03:39.350Z,24.17
2019-03-23T13:06:17.071Z,23.90
2019-03-23T13:08:47.379Z,21.97
2019-03-23T13:11:23.286Z,23.60
2019-03-23T13:13:45.335Z,21.70
2019-03-23T13:16:12.573Z,22.43
2019-03-23T13:18:39.874Z,22.10
2019-03-23T13:21:07.811Z,23.70
2019-03-23T13:23:35.367Z,21.27
2019-03-23T13:26:03.451Z,22.53
2019-03-23T13:28:30.778Z,22.27
2019-03-23T13:30:59.997Z,23.10
2019-03-23T13:33:27.274Z,22.47
2019-03-23T13:35:54.638Z,23.67
2019-03-23T13:38:21.995Z,23.30
2019-03-23T13:40:49.297Z,20.47
2019-03-23T13:43:16.550Z,21.20
2019-03-23T13:45:43.940Z,21.30
2019-03-23T13:48:11.432Z,23.37
2019-03-23T13:50:38.708Z,23.70
2019-03-23T13:53:06.018Z,22.30
2019-03-23T13:55:33.730Z,20.70
2019-03-23T13:58:08.613Z,20.17
2019-03-23T14:00:35.972Z,22.33
2019-03-23T14:03:03.641Z,20.83
2019-03-23T14:05:30.897Z,20.17
2019-03-23T14:07:58.276Z,22.17
2019-03-23T14:10:28.012Z,20.73
2019-03-23T14:12:55.431Z,22.30
2019-03-23T14:15:23.494Z,21.00
2019-03-23T14:17:50.780Z,21.60
2019-03-23T14:20:20.460Z,22.17
2019-03-23T14:22:47.635Z,21.53
2019-03-23T14:25:14.884Z,21.83
2019-03-23T14:27:42.175Z,22.70
2019-03-23T14:30:09.475Z,20.93
2019-03-23T14:32:36.753Z,23.73
2019-03-23T14:35:04.324Z,23.77
2019-03-23T14:37:31.742Z,22.57
2019-03-23T14:39:58.997Z,21.20
2019-03-23T14:42:26.969Z,22.67
2019-03-23T14:44:57.519Z,24.00
2019-03-23T14:47:24.797Z,24.20
2019-03-23T14:49:52.134Z,23.20
2019-03-23T14:52:19.707Z,24.57
2019-03-23T14:54:46.979Z,24.27
2019-03-23T14:57:14.991Z,24.77
2019-03-23T14:59:42.756Z,23.43
2019-03-23T15:02:10.408Z,24.43
2019-03-23T15:04:37.897Z,25.03
2019-03-23T15:07:05.378Z,25.67
2019-03-23T15:09:33.132Z,25.67
2019-03-23T15:12:02.818Z,25.10
2019-03-23T15:14:30.557Z,24.97
2019-03-23T15:17:00.100Z,27.50
2019-03-23T15:19:27.686Z,26.70
2019-03-23T15:21:55.161Z,25.90
2019-03-23T15:24:22.982Z,25.40
2019-03-23T15:26:53.179Z,25.20
2019-03-23T15:29:22.572Z,26.77
2019-03-23T15:31:50.074Z,26.60
2019-03-23T15:34:17.866Z,26.90
2019-03-23T15:36:45.135Z,30.10
2019-03-23T15:39:12.392Z,33.37
2019-03-23T15:41:39.930Z,34.40
2019-03-23T15:44:07.201Z,34.17
2019-03-23T15:46:34.494Z,34.43
2019-03-23T15:49:01.753Z,33.63
2019-03-23T15:51:29.120Z,32.67
2019-03-23T15:53:58.522Z,32.40
2019-03-23T15:56:25.869Z,34.13
2019-03-23T15:58:53.145Z,32.87
2019-03-23T16:01:23.308Z,32.97
2019-03-23T16:03:50.621Z,34.20
2019-03-23T16:06:18.158Z,32.47
2019-03-23T16:08:45.547Z,33.47
2019-03-23T16:11:12.804Z,34.63
2019-03-23T16:13:40.604Z,32.87
2019-03-23T16:16:08.018Z,33.27
2019-03-23T16:18:35.422Z,30.90
2019-03-23T16:21:02.804Z,31.50
2019-03-23T16:23:30.450Z,31.53
2019-03-23T16:25:57.771Z,31.50
2019-03-23T16:28:25.366Z,30.60
2019-03-23T16:30:52.716Z,29.67
2019-03-23T16:33:21.924Z,28.90
2019-03-23T16:35:49.583Z,29.13
2019-03-23T16:38:16.933Z,29.77
2019-03-23T16:40:44.785Z,28.43
2019-03-23T16:43:12.156Z,26.83
2019-03-23T16:45:39.929Z,28.20
2019-03-23T16:48:07.230Z,27.67
2019-03-23T16:50:34.708Z,28.17
2019-03-23T16:53:01.990Z,25.40
2019-03-23T16:55:29.236Z,28.33
2019-03-23T16:57:56.492Z,26.80
2019-03-23T17:00:34.212Z,26.70
2019-03-23T17:03:02.504Z,28.07
2019-03-23T17:05:30.488Z,26.47
2019-03-23T17:07:57.776Z,26.97
2019-03-23T17:10:25.460Z,27.00
2019-03-23T17:12:55.527Z,27.07
2019-03-23T17:15:21.914Z,28.00
2019-03-23T17:17:49.163Z,27.90
2019-03-23T17:20:16.471Z,30.07
2019-03-23T17:22:43.786Z,28.47
2019-03-23T17:25:11.035Z,29.97
2019-03-23T17:27:39.578Z,29.00
2019-03-23T17:30:09.557Z,27.60
2019-03-23T17:32:39.646Z,29.63
2019-03-23T17:35:07.027Z,27.90
2019-03-23T17:37:34.324Z,28.80
2019-03-23T17:40:01.650Z,32.33
2019-03-23T17:42:28.946Z,32.00
2019-03-23T17:44:56.224Z,29.17
2019-03-23T17:47:23.490Z,29.80
2019-03-23T17:49:50.762Z,29.10
2019-03-23T17:52:18.046Z,30.00
2019-03-23T17:54:45.290Z,32.00
2019-03-23T17:57:12.549Z,31.27
2019-03-23T17:59:39.868Z,30.30
2019-03-23T18:02:07.406Z,30.33
2019-03-23T18:04:36.761Z,29.97
2019-03-23T18:07:05.379Z,33.37
2019-03-23T18:09:33.089Z,36.40
2019-03-23T18:12:03.806Z,30.53
2019-03-23T18:14:31.542Z,30.97
2019-03-23T18:16:58.788Z,30.10
2019-03-23T18:19:26.774Z,30.70
2019-03-23T18:21:54.582Z,33.20
2019-03-23T18:24:22.014Z,32.20
2019-03-23T18:26:49.619Z,31.20
2019-03-23T18:29:16.866Z,33.20
2019-03-23T18:31:44.452Z,32.77
2019-03-23T18:34:12.066Z,32.60
2019-03-23T18:36:39.539Z,32.57
2019-03-23T18:39:07.376Z,31.73
2019-03-23T18:41:38.038Z,33.40
2019-03-23T18:44:15.609Z,34.10
2019-03-23T18:46:38.816Z,34.67
2019-03-23T18:49:06.026Z,34.53
2019-03-23T18:51:33.467Z,34.57
2019-03-23T18:54:00.742Z,34.23
2019-03-23T18:56:29.385Z,34.70
2019-03-23T18:58:57.116Z,34.47
2019-03-23T19:01:27.589Z,36.13
2019-03-23T19:03:56.448Z,35.00
2019-03-23T19:06:24.257Z,36.37
2019-03-23T19:08:51.548Z,36.03
2019-03-23T19:11:28.633Z,36.40
2019-03-23T19:13:56.091Z,37.30
2019-03-23T19:16:25.069Z,38.07
2019-03-23T19:18:52.516Z,38.73
2019-03-23T19:21:23.497Z,38.07
2019-03-23T19:23:54.173Z,38.33
2019-03-23T19:26:23.104Z,39.03
2019-03-23T19:28:50.540Z,40.20
2019-03-23T19:31:21.052Z,38.70
2019-03-23T19:33:51.142Z,40.53
2019-03-23T19:36:20.548Z,39.90
2019-03-23T19:38:47.858Z,40.33
2019-03-23T19:41:16.319Z,40.43
2019-03-23T19:43:49.786Z,39.87
2019-03-23T19:46:13.994Z,39.80
2019-03-23T19:48:41.244Z,39.83
2019-03-23T19:51:08.517Z,42.53
2019-03-23T19:53:36.800Z,41.90
2019-03-23T19:56:04.830Z,42.87
2019-03-23T19:58:32.213Z,42.27
2019-03-23T20:01:00.496Z,41.33
2019-03-23T20:03:30.329Z,41.43
2019-03-23T20:05:58.001Z,41.57
2019-03-23T20:08:25.732Z,41.70
2019-03-23T20:10:52.978Z,42.30
2019-03-23T20:13:29.840Z,41.17
2019-03-23T20:16:00.115Z,44.33
2019-03-23T20:18:27.568Z,43.30
2019-03-23T20:20:55.724Z,41.63
2019-03-23T20:23:25.021Z,41.20
2019-03-23T20:25:57.934Z,44.33
2019-03-23T20:28:31.088Z,44.73
2019-03-23T20:31:00.088Z,43.40
2019-03-23T20:33:27.486Z,42.60
2019-03-23T20:35:55.587Z,43.27
2019-03-23T20:38:24.293Z,44.33
2019-03-23T20:40:51.935Z,42.47
2019-03-23T20:43:19.493Z,42.37
2019-03-23T20:45:51.909Z,39.70
2019-03-23T20:48:20.235Z,43.43
2019-03-23T20:50:48.025Z,38.30
2019-03-23T20:53:26.847Z,38.43
2019-03-23T20:55:56.445Z,39.37
2019-03-23T20:58:26.257Z,38.93
2019-03-23T21:00:58.768Z,37.80
2019-03-23T21:03:28.944Z,40.30
2019-03-23T21:05:56.403Z,37.50
2019-03-23T21:08:28.749Z,39.67
2019-03-23T21:10:58.289Z,40.67
2019-03-23T21:13:25.627Z,40.20
2019-03-23T21:15:55.505Z,38.80
2019-03-23T21:18:23.674Z,39.30
2019-03-23T21:20:53.567Z,38.80
2019-03-23T21:23:22.747Z,39.30
2019-03-23T21:25:50.088Z,38.83
2019-03-23T21:28:21.865Z,40.80
2019-03-23T21:30:53.887Z,37.70
2019-03-23T21:33:32.106Z,36.90
2019-03-23T21:36:01.710Z,35.33
2019-03-23T21:38:31.539Z,36.87
2019-03-23T21:41:01.728Z,33.00
2019-03-23T21:43:32.797Z,32.93
2019-03-23T21:46:08.940Z,34.90
2019-03-23T21:48:38.739Z,32.53
2019-03-23T21:51:08.406Z,32.50
2019-03-23T21:53:38.911Z,33.07
2019-03-23T21:56:09.658Z,32.00
2019-03-23T21:58:39.334Z,32.50
2019-03-23T22:01:14.187Z,32.10
2019-03-23T22:03:44.221Z,32.93
2019-03-23T22:06:12.676Z,33.33
2019-03-23T22:08:42.363Z,32.63
2019-03-23T22:11:12.597Z,31.37
2019-03-23T22:13:46.129Z,31.00
2019-03-23T22:16:17.433Z,31.30
2019-03-23T22:18:56.912Z,31.47
2019-03-23T22:21:26.945Z,32.70
2019-03-23T22:23:55.607Z,32.00
2019-03-23T22:26:22.999Z,30.10
2019-03-23T22:28:53.479Z,29.53
2019-03-23T22:31:21.259Z,29.73
2019-03-23T22:33:50.231Z,31.03
2019-03-23T22:36:19.737Z,30.20
2019-03-23T22:38:48.823Z,31.47
2019-03-23T22:41:16.893Z,30.20
2019-03-23T22:43:44.180Z,33.27
2019-03-23T22:46:11.933Z,31.57
2019-03-23T22:48:42.346Z,32.37
2019-03-23T22:51:10.851Z,29.23
2019-03-23T22:53:40.622Z,28.23
2019-03-23T22:56:12.640Z,30.50
2019-03-23T22:58:48.527Z,31.03
2019-03-23T23:01:15.811Z,35.88
2019-03-23T23:03:44.807Z,32.23
2019-03-23T23:06:21.956Z,31.80
2019-03-23T23:08:59.197Z,31.60
2019-03-23T23:11:27.087Z,29.57
2019-03-23T23:13:54.528Z,31.67
2019-03-23T23:16:25.854Z,30.53
2019-03-23T23:18:53.235Z,30.07
2019-03-23T23:21:20.498Z,33.50
2019-03-23T23:23:47.837Z,32.77
2019-03-23T23:26:15.300Z,30.70
2019-03-23T23:28:42.734Z,29.30
2019-03-23T23:31:10.601Z,32.23
2019-03-23T23:33:38.044Z,31.70
2019-03-23T23:36:05.327Z,30.53
2019-03-23T23:38:32.656Z,31.97
2019-03-23T23:41:01.432Z,32.60
2019-03-23T23:43:28.919Z,31.10
2019-03-23T23:45:56.234Z,31.10
2019-03-23T23:48:23.550Z,29.70
2019-03-23T23:50:50.929Z,31.13
2019-03-23T23:53:18.788Z,29.70
2019-03-23T23:55:46.616Z,30.53
2019-03-23T23:58:14.105Z,33.10
